Time;durP1;ratioP1;P1;durP2;ratioP2;P2;SDS_P1;SDS_P2;PMS_P1;PMS_P2;Temp;Humidity;BMP_temperature;BMP_pressure;BME280_temperature;BME280_humidity;BME280_pressure;Samples;Min_cycle;Max_cycle;Signal;HPM_P1;HPM_P2
2023/01/09 00:01:35;;;;;;;5.82;2.00;;;7.80;99.70;;;;;;4837933;29;20515;-72
2023/01/09 00:04:01;;;;;;;4.00;1.90;;;7.80;99.90;;;;;;4838093;29;20066;-71
2023/01/09 00:06:27;;;;;;;3.80;1.45;;;7.90;99.90;;;;;;4854061;29;20116;-70
2023/01/09 00:08:53;;;;;;;4.60;1.90;;;7.90;99.90;;;;;;4838813;29;20388;-71
2023/01/09 00:11:21;;;;;;;5.25;1.83;;;7.90;99.90;;;;;;4855646;29;20045;-70
2023/01/09 00:13:47;;;;;;;3.60;1.73;;;7.90;99.90;;;;;;4838160;29;20042;-76
2023/01/09 00:16:13;;;;;;;4.50;1.58;;;7.90;99.90;;;;;;4859368;29;20045;-75
2023/01/09 00:18:39;;;;;;;3.25;1.38;;;8.00;99.90;;;;;;4844195;29;20105;-75
2023/01/09 00:21:07;;;;;;;3.17;1.42;;;8.00;99.90;;;;;;4859285;29;20057;-76
2023/01/09 00:23:33;;;;;;;1.98;1.08;;;7.90;99.90;;;;;;4858877;29;20053;-76
2023/01/09 00:26:25;;;;;;;2.70;1.10;;;7.90;99.90;;;;;;4858226;29;20053;-75
2023/01/09 00:28:53;;;;;;;2.75;0.93;;;7.80;99.90;;;;;;4838793;29;20524;-75
2023/01/09 00:31:21;;;;;;;2.08;0.85;;;7.80;99.90;;;;;;4859670;29;20049;-76
2023/01/09 00:34:09;;;;;;;1.45;0.80;;;7.70;99.90;;;;;;4859405;29;20144;-76
2023/01/09 00:36:35;;;;;;;2.58;0.80;;;7.70;99.90;;;;;;4859970;29;20047;-76
2023/01/09 00:39:00;;;;;;;2.75;0.60;;;7.70;99.90;;;;;;4843850;29;20053;-75
2023/01/09 00:41:34;;;;;;;1.23;0.55;;;7.60;99.90;;;;;;4859619;29;20482;-76
2023/01/09 00:44:05;;;;;;;3.47;0.50;;;7.50;99.40;;;;;;4860807;29;20049;-75
2023/01/09 00:46:35;;;;;;;1.15;0.40;;;7.50;98.10;;;;;;4860958;29;20185;-76
2023/01/09 00:49:03;;;;;;;0.82;0.40;;;7.50;96.90;;;;;;4861106;29;20045;-76
2023/01/09 00:51:29;;;;;;;0.55;0.30;;;7.50;95.90;;;;;;4859289;29;22200;-75
2023/01/09 00:53:54;;;;;;;0.80;0.30;;;7.40;96.00;;;;;;4846785;29;20077;-74
2023/01/09 00:56:22;;;;;;;1.20;0.50;;;7.30;96.90;;;;;;4831786;29;20111;-74
2023/01/09 00:58:48;;;;;;;0.90;0.50;;;7.30;97.80;;;;;;4860689;29;20052;-74
2023/01/09 01:01:14;;;;;;;;;;;7.30;98.60;;;;;;4844729;29;20053;-74
2023/01/09 01:03:39;;;;;;;1.63;0.55;;;7.30;99.50;;;;;;4860975;29;19924;-74
2023/01/09 01:08:49;;;;;;;0.80;0.50;;;7.20;99.90;;;;;;4855491;29;20557;-70
2023/01/09 01:11:15;;;;;;;1.27;0.40;;;7.20;99.90;;;;;;4856272;29;20141;-70
2023/01/09 01:13:41;;;;;;;1.50;0.68;;;7.10;99.90;;;;;;4859370;29;20447;-70
2023/01/09 01:16:10;;;;;;;1.65;0.60;;;7.10;99.90;;;;;;4840875;29;20041;-70
2023/01/09 01:18:37;;;;;;;2.30;0.60;;;7.10;99.90;;;;;;4858542;29;20053;-69
2023/01/09 01:21:06;;;;;;;;;;;7.10;99.90;;;;;;4857286;29;20045;-70
2023/01/09 01:23:33;;;;;;;1.02;0.50;;;7.00;99.90;;;;;;4847519;29;19923;-70
2023/01/09 01:26:05;;;;;;;1.23;0.40;;;7.00;99.90;;;;;;4843439;29;20057;-70
2023/01/09 01:28:30;;;;;;;1.02;0.40;;;7.00;99.90;;;;;;4854575;29;20037;-70
2023/01/09 01:30:56;;;;;;;1.05;0.43;;;7.00;99.90;;;;;;4854734;29;20578;-70
2023/01/09 01:33:22;;;;;;;0.25;0.20;;;7.00;99.90;;;;;;4855324;29;20068;-75
2023/01/09 01:35:47;;;;;;;1.17;0.45;;;7.00;99.90;;;;;;4859689;29;20045;-75
2023/01/09 01:38:16;;;;;;;1.35;0.40;;;7.00;99.90;;;;;;4841895;29;20061;-75
2023/01/09 01:40:41;;;;;;;1.02;0.50;;;7.00;99.90;;;;;;4852067;29;20045;-70
2023/01/09 01:43:10;;;;;;;0.70;0.50;;;7.10;99.90;;;;;;4840397;29;20459;-70
2023/01/09 01:45:39;;;;;;;0.80;0.55;;;7.10;99.90;;;;;;4857978;29;20098;-70
2023/01/09 01:48:24;;;;;;;2.35;0.50;;;7.20;99.90;;;;;;4858327;29;20053;-70
2023/01/09 01:50:58;;;;;;;1.05;0.68;;;7.20;99.90;;;;;;4843034;29;20056;-71
2023/01/09 01:53:32;;;;;;;1.98;0.95;;;7.30;99.90;;;;;;4858142;29;20049;-70
2023/01/09 01:56:17;;;;;;;1.50;0.82;;;7.40;99.90;;;;;;4842582;29;20056;-72
2023/01/09 01:58:54;;;;;;;1.83;1.00;;;7.50;99.90;;;;;;4858039;29;20057;-70
2023/01/09 02:01:22;;;;;;;0.98;0.73;;;7.50;99.90;;;;;;4841867;29;20520;-70
2023/01/09 02:03:49;;;;;;;3.70;1.00;;;7.50;99.90;;;;;;4853238;29;20104;-70
2023/01/09 02:06:15;;;;;;;2.60;1.20;;;7.70;99.90;;;;;;4833310;29;20073;-70
2023/01/09 02:08:42;;;;;;;2.53;1.05;;;7.80;99.90;;;;;;4840033;29;20049;-71
2023/01/09 02:11:08;;;;;;;2.67;0.88;;;7.80;99.90;;;;;;4855831;29;20494;-71
2023/01/09 02:13:37;;;;;;;3.00;1.27;;;7.80;99.90;;;;;;4856871;29;20060;-71
2023/01/09 02:16:30;;;;;;;4.22;1.00;;;7.80;99.90;;;;;;4854787;29;20545;-69
2023/01/09 02:19:02;;;;;;;3.92;1.00;;;7.90;99.90;;;;;;4855170;29;20049;-70
2023/01/09 02:21:42;;;;;;;1.70;1.00;;;7.80;99.90;;;;;;4847314;29;20489;-70
2023/01/09 02:24:53;;;;;;;2.78;1.10;;;7.90;99.90;;;;;;4849776;29;20463;-71
2023/01/09 02:27:38;;;;;;;3.50;1.13;;;7.90;99.90;;;;;;4811925;29;20496;-71
2023/01/09 02:30:12;;;;;;;1.35;0.93;;;7.90;99.90;;;;;;4858792;29;20053;-75
2023/01/09 02:32:48;;;;;;;2.85;1.30;;;7.90;99.90;;;;;;4856908;29;20108;-76
2023/01/09 02:35:32;;;;;;;3.30;1.87;;;7.90;99.90;;;;;;4858639;29;20061;-75
2023/01/09 02:38:20;;;;;;;3.03;1.58;;;7.90;99.90;;;;;;4831824;29;20057;-75
2023/01/09 02:41:05;;;;;;;4.28;1.67;;;7.90;99.90;;;;;;4857062;29;20096;-75
2023/01/09 02:43:31;;;;;;;3.63;1.38;;;7.80;99.90;;;;;;4859349;29;20124;-76
2023/01/09 02:45:57;;;;;;;3.33;1.40;;;7.80;99.90;;;;;;4860125;29;20053;-75
2023/01/09 02:48:23;;;;;;;2.58;0.88;;;7.80;99.90;;;;;;4843333;29;20120;-76
2023/01/09 02:51:06;;;;;;;3.10;0.95;;;7.70;99.90;;;;;;4852632;29;20062;-75
2023/01/09 02:53:43;;;;;;;1.77;1.00;;;7.70;99.90;;;;;;4857465;29;20158;-76
2023/01/09 02:56:27;;;;;;;;;;;7.70;99.90;;;;;;4849930;29;20479;-76
2023/01/09 02:59:21;;;;;;;3.17;1.08;;;7.60;99.90;;;;;;4841167;29;19924;-75
2023/01/09 03:02:45;;;;;;;1.88;0.93;;;7.60;99.90;;;;;;4856330;29;20490;-75
2023/01/09 03:05:32;;;;;;;4.32;1.20;;;7.60;99.90;;;;;;4767495;30;20043;-75
2023/01/09 03:08:05;;;;;;;3.40;1.15;;;7.60;99.90;;;;;;4781037;29;20054;-75
2023/01/09 03:10:38;;;;;;;2.25;1.10;;;7.60;99.90;;;;;;4842841;29;20057;-75
2023/01/09 03:13:05;;;;;;;2.30;1.20;;;7.50;99.90;;;;;;4841862;29;20053;-76
2023/01/09 03:15:35;;;;;;;2.33;1.15;;;7.50;99.90;;;;;;4835018;29;20041;-75
2023/01/09 03:18:04;;;;;;;2.85;1.10;;;7.50;99.90;;;;;;4846387;29;20046;-76
2023/01/09 03:20:31;;;;;;;1.80;1.00;;;7.50;99.90;;;;;;4853897;29;20460;-70
2023/01/09 03:22:58;;;;;;;;;;;7.50;99.90;;;;;;4857532;29;20059;-70
2023/01/09 03:25:25;;;;;;;4.57;1.27;;;7.50;99.90;;;;;;4855305;29;19926;-71
2023/01/09 03:27:55;;;;;;;4.18;1.60;;;7.50;99.90;;;;;;4853318;29;20056;-71
2023/01/09 03:30:20;;;;;;;3.60;1.60;;;7.50;99.90;;;;;;4826042;29;20046;-71
2023/01/09 03:32:46;;;;;;;4.03;1.15;;;7.50;99.90;;;;;;4855107;29;20059;-70
2023/01/09 03:35:12;;;;;;;3.97;1.50;;;7.50;99.90;;;;;;4835758;29;20049;-70
2023/01/09 03:37:37;;;;;;;3.22;1.20;;;7.50;99.90;;;;;;4847671;29;20195;-70
2023/01/09 03:40:04;;;;;;;3.13;1.42;;;7.50;99.90;;;;;;4835552;29;20119;-70
2023/01/09 03:42:30;;;;;;;4.45;1.40;;;7.50;99.90;;;;;;4856782;29;20053;-71
2023/01/09 03:44:55;;;;;;;3.40;1.30;;;7.50;99.90;;;;;;4855869;29;20038;-70
2023/01/09 03:47:21;;;;;;;4.20;1.30;;;7.40;99.90;;;;;;4840397;29;20479;-70
2023/01/09 03:49:47;;;;;;;4.05;1.40;;;7.50;99.90;;;;;;4856279;29;20125;-71
2023/01/09 03:52:12;;;;;;;3.45;1.50;;;7.40;99.90;;;;;;4840277;29;20568;-71
2023/01/09 03:54:38;;;;;;;2.13;1.38;;;7.40;99.90;;;;;;4855848;29;20417;-71
2023/01/09 03:57:04;;;;;;;2.55;1.52;;;7.40;99.90;;;;;;4853424;29;20053;-71
2023/01/09 03:59:30;;;;;;;3.25;1.45;;;7.40;99.90;;;;;;4840008;29;20526;-71
2023/01/09 04:01:55;;;;;;;3.35;1.60;;;7.30;99.90;;;;;;4855829;29;20087;-71
2023/01/09 04:04:21;;;;;;;4.00;1.70;;;7.30;99.90;;;;;;4843545;29;20053;-71
2023/01/09 04:06:50;;;;;;;3.70;1.77;;;7.40;99.90;;;;;;4855805;29;20053;-71
2023/01/09 04:09:15;;;;;;;4.65;1.98;;;7.30;99.90;;;;;;4828035;29;20100;-71
2023/01/09 04:11:41;;;;;;;3.67;1.70;;;7.40;99.90;;;;;;4854926;29;20442;-71
2023/01/09 04:14:07;;;;;;;4.63;1.80;;;7.40;99.90;;;;;;4814458;29;20056;-70
2023/01/09 04:16:32;;;;;;;4.53;1.90;;;7.40;99.90;;;;;;4858804;29;20053;-70
2023/01/09 04:18:59;;;;;;;4.50;1.88;;;7.40;99.90;;;;;;4859457;29;20128;-71
2023/01/09 04:21:24;;;;;;;4.15;1.83;;;7.30;99.90;;;;;;4858136;29;20109;-71
2023/01/09 04:23:50;;;;;;;4.07;2.17;;;7.40;99.90;;;;;;4844364;29;20549;-71
2023/01/09 04:26:16;;;;;;;4.97;2.10;;;7.30;99.90;;;;;;4857689;29;20048;-71
2023/01/09 04:28:41;;;;;;;4.95;2.35;;;7.40;99.90;;;;;;4845424;29;20178;-75
2023/01/09 04:31:07;;;;;;;8.43;2.15;;;7.30;99.90;;;;;;4856614;29;20042;-76
2023/01/09 04:33:33;;;;;;;5.30;2.42;;;7.40;99.90;;;;;;4843912;29;20053;-75
2023/01/09 04:36:02;;;;;;;6.28;2.40;;;7.40;99.90;;;;;;4860866;29;20054;-75
2023/01/09 04:38:28;;;;;;;4.20;2.45;;;7.30;99.90;;;;;;4860169;29;20057;-75
2023/01/09 04:40:53;;;;;;;5.03;2.53;;;7.40;99.90;;;;;;4862320;29;20061;-76
2023/01/09 04:43:19;;;;;;;5.65;2.58;;;7.40;99.90;;;;;;4859913;29;20049;-75
2023/01/09 04:45:45;;;;;;;4.80;2.40;;;7.40;99.90;;;;;;4861927;29;20045;-74
2023/01/09 04:48:10;;;;;;;5.93;2.78;;;7.30;99.90;;;;;;4843644;29;21207;-75
2023/01/09 04:50:36;;;;;;;4.30;2.42;;;7.40;99.90;;;;;;4844312;29;20037;-75
2023/01/09 04:53:02;;;;;;;3.30;2.38;;;7.40;99.90;;;;;;4859967;29;20494;-75
2023/01/09 04:55:28;;;;;;;6.03;2.95;;;7.40;99.90;;;;;;4844138;29;20435;-75
2023/01/09 04:57:54;;;;;;;3.75;2.60;;;7.40;99.90;;;;;;4857756;29;20157;-70
2023/01/09 05:00:19;;;;;;;5.50;3.10;;;7.30;99.90;;;;;;4857372;29;20073;-70
2023/01/09 05:02:45;;;;;;;5.20;2.60;;;7.30;99.90;;;;;;4858297;29;20090;-70
2023/01/09 05:05:11;;;;;;;4.38;2.78;;;7.40;99.90;;;;;;4829114;29;20105;-70
2023/01/09 05:07:36;;;;;;;4.85;2.80;;;7.30;99.90;;;;;;4831770;29;20077;-70
2023/01/09 05:10:04;;;;;;;3.45;2.33;;;7.30;99.90;;;;;;4839355;29;20769;-71
2023/01/09 05:12:29;;;;;;;5.30;3.10;;;7.30;99.90;;;;;;4853228;29;20048;-71
2023/01/09 05:14:56;;;;;;;4.95;2.92;;;7.20;99.90;;;;;;4830996;29;20049;-71
2023/01/09 05:17:22;;;;;;;4.43;3.00;;;7.30;99.90;;;;;;4837943;29;20042;-71
2023/01/09 05:19:48;;;;;;;6.15;2.85;;;7.20;99.90;;;;;;4839981;29;20051;-70
2023/01/09 05:22:14;;;;;;;5.25;3.53;;;7.30;99.90;;;;;;4857277;29;20136;-71
2023/01/09 05:24:40;;;;;;;7.95;3.83;;;7.30;99.90;;;;;;4857899;29;20401;-70
2023/01/09 05:27:06;;;;;;;6.13;3.90;;;7.30;99.90;;;;;;4857529;29;20140;-71
2023/01/09 05:29:31;;;;;;;7.00;4.50;;;7.20;99.90;;;;;;4856394;29;20084;-71
2023/01/09 05:31:57;;;;;;;6.53;4.63;;;7.40;99.90;;;;;;4823141;29;20129;-71
2023/01/09 05:34:23;;;;;;;5.25;3.75;;;7.40;99.90;;;;;;4853656;29;20050;-71
2023/01/09 05:36:49;;;;;;;9.07;4.80;;;7.40;99.90;;;;;;4856300;29;20049;-71
2023/01/09 05:39:14;;;;;;;8.15;5.28;;;7.50;99.90;;;;;;4834557;29;20065;-72
2023/01/09 05:41:40;;;;;;;6.50;4.95;;;7.60;99.90;;;;;;4855787;29;20049;-71
2023/01/09 05:44:06;;;;;;;8.05;5.50;;;7.60;99.90;;;;;;4843185;29;20443;-71
2023/01/09 05:46:31;;;;;;;8.30;5.70;;;7.70;99.90;;;;;;4854755;29;20128;-71
2023/01/09 05:48:57;;;;;;;10.05;6.65;;;7.70;99.90;;;;;;4837395;29;20054;-70
2023/01/09 05:51:23;;;;;;;9.65;7.25;;;7.80;99.90;;;;;;4826554;29;20085;-75
2023/01/09 05:53:51;;;;;;;9.63;6.68;;;7.90;99.90;;;;;;4833308;29;20041;-75
2023/01/09 05:56:17;;;;;;;9.77;6.53;;;7.90;99.90;;;;;;4830027;29;20158;-74
2023/01/09 05:58:43;;;;;;;9.27;6.88;;;8.00;99.90;;;;;;4854947;29;20175;-70
2023/01/09 06:01:09;;;;;;;9.25;8.00;;;8.10;99.90;;;;;;4837756;29;20053;-70
2023/01/09 06:03:34;;;;;;;10.75;8.73;;;8.10;99.90;;;;;;4854763;29;20069;-70
2023/01/09 06:06:00;;;;;;;11.52;7.32;;;8.20;99.90;;;;;;4840687;29;20140;-70
2023/01/09 06:08:26;;;;;;;14.13;9.32;;;8.20;99.90;;;;;;4807281;29;20056;-70
2023/01/09 06:10:52;;;;;;;12.88;9.40;;;8.20;99.90;;;;;;4856752;29;20057;-70
2023/01/09 06:13:20;;;;;;;10.82;8.82;;;8.20;99.90;;;;;;4855086;29;20052;-70
2023/01/09 06:15:47;;;;;;;10.40;8.73;;;8.30;99.90;;;;;;4821724;29;20109;-70
2023/01/09 06:18:13;;;;;;;14.93;10.35;;;8.20;99.90;;;;;;4843207;29;20060;-70
2023/01/09 06:20:38;;;;;;;17.27;10.50;;;8.30;99.90;;;;;;4839937;29;21010;-71
2023/01/09 06:23:04;;;;;;;14.88;9.38;;;8.20;99.90;;;;;;4854047;29;20449;-69
2023/01/09 06:25:30;;;;;;;14.13;10.10;;;8.30;99.90;;;;;;4837301;29;20059;-70
2023/01/09 06:27:55;;;;;;;14.93;10.93;;;8.30;99.90;;;;;;4837836;29;20053;-70
2023/01/09 06:30:21;;;;;;;14.93;10.27;;;8.30;99.90;;;;;;4833636;29;20077;-70
2023/01/09 06:32:50;;;;;;;14.23;9.95;;;8.30;99.90;;;;;;4834486;29;20053;-70
2023/01/09 06:35:21;;;;;;;14.00;9.88;;;8.30;99.90;;;;;;4819321;29;20418;-71
2023/01/09 06:37:50;;;;;;;14.18;10.95;;;8.30;99.90;;;;;;4856234;29;20030;-71
2023/01/09 06:40:16;;;;;;;12.88;9.60;;;8.30;99.90;;;;;;4837948;29;20153;-71
2023/01/09 06:42:46;;;;;;;11.25;8.77;;;8.20;99.90;;;;;;4837224;29;20077;-70
2023/01/09 06:45:12;;;;;;;12.38;8.80;;;8.30;99.90;;;;;;4833675;29;20166;-69
2023/01/09 06:47:38;;;;;;;;;;;8.30;99.90;;;;;;4855746;29;20517;-75
2023/01/09 06:50:04;;;;;;;12.00;8.65;;;8.20;99.90;;;;;;4855257;29;19931;-75
2023/01/09 06:52:30;;;;;;;;;;;8.20;99.90;;;;;;4852140;29;20049;-76
2023/01/09 06:54:56;;;;;;;12.95;9.52;;;8.10;99.90;;;;;;4856412;29;19920;-76
2023/01/09 06:57:22;;;;;;;13.43;8.77;;;8.10;99.90;;;;;;4824310;29;20053;-75
2023/01/09 06:59:48;;;;;;;15.63;10.00;;;8.10;99.90;;;;;;4857189;29;20482;-76
2023/01/09 07:02:19;;;;;;;15.75;10.80;;;8.10;99.90;;;;;;4854735;29;20084;-76
2023/01/09 07:04:45;;;;;;;11.70;9.23;;;8.10;99.90;;;;;;4854508;29;20136;-77
2023/01/09 07:07:11;;;;;;;14.85;9.50;;;8.00;99.90;;;;;;4838901;29;20128;-77
2023/01/09 07:09:37;;;;;;;13.32;9.85;;;8.00;99.90;;;;;;4846343;29;20049;-78
2023/01/09 07:12:03;;;;;;;14.05;10.10;;;8.00;99.90;;;;;;4841281;29;20402;-77
2023/01/09 07:14:28;;;;;;;13.68;9.82;;;7.90;99.90;;;;;;4839314;29;20048;-71
2023/01/09 07:16:54;;;;;;;14.18;9.73;;;7.90;99.90;;;;;;4850552;29;20049;-70
2023/01/09 07:19:20;;;;;;;13.25;9.23;;;7.90;99.90;;;;;;4852197;29;20049;-72
2023/01/09 07:21:45;;;;;;;15.07;10.38;;;7.80;99.90;;;;;;4839814;29;20478;-73
2023/01/09 07:24:11;;;;;;;14.07;8.98;;;7.80;99.90;;;;;;4822307;29;20102;-72
2023/01/09 07:26:37;;;;;;;14.48;9.18;;;7.80;99.90;;;;;;4829860;29;20515;-70
2023/01/09 07:29:03;;;;;;;12.15;8.48;;;7.70;99.90;;;;;;4822928;29;20046;-70
2023/01/09 07:31:29;;;;;;;12.95;9.55;;;7.70;99.90;;;;;;4838423;29;20042;-70
2023/01/09 07:33:54;;;;;;;11.75;8.70;;;7.70;99.90;;;;;;4838271;29;20075;-70
2023/01/09 07:36:20;;;;;;;15.50;8.20;;;7.70;99.90;;;;;;4838855;29;20037;-71
2023/01/09 07:38:46;;;;;;;11.15;7.72;;;7.70;99.90;;;;;;4825311;29;20061;-71
2023/01/09 07:41:12;;;;;;;9.95;7.30;;;7.60;99.90;;;;;;4842064;29;20186;-70
2023/01/09 07:43:38;;;;;;;9.35;7.32;;;7.70;99.90;;;;;;4826693;29;20129;-70
2023/01/09 07:46:05;;;;;;;9.00;6.18;;;7.60;99.90;;;;;;4842070;29;20117;-70
2023/01/09 07:48:31;;;;;;;10.13;7.07;;;7.60;99.90;;;;;;4826649;29;20053;-70
2023/01/09 07:50:56;;;;;;;9.13;7.30;;;7.50;99.90;;;;;;4842117;29;20089;-68
2023/01/09 07:53:22;;;;;;;9.50;7.35;;;7.50;99.90;;;;;;4826634;29;20046;-70
2023/01/09 07:55:50;;;;;;;11.02;6.63;;;7.50;99.90;;;;;;4841644;29;20081;-70
2023/01/09 07:58:16;;;;;;;9.75;6.80;;;7.50;99.90;;;;;;4842812;29;20065;-70
2023/01/09 08:00:42;;;;;;;9.75;6.95;;;7.40;99.90;;;;;;4811075;29;20051;-71
2023/01/09 08:03:07;;;;;;;10.00;6.78;;;7.40;99.90;;;;;;4841565;29;20149;-71
2023/01/09 08:05:33;;;;;;;8.68;6.03;;;7.30;99.90;;;;;;4842679;29;20137;-71
2023/01/09 08:08:00;;;;;;;8.13;5.28;;;7.20;99.90;;;;;;4841495;29;20053;-71
2023/01/09 08:10:26;;;;;;;8.80;5.53;;;7.20;99.90;;;;;;4812035;29;20153;-77
2023/01/09 08:12:52;;;;;;;7.05;5.03;;;7.20;99.90;;;;;;4842027;29;20057;-71
2023/01/09 08:15:21;;;;;;;9.63;4.75;;;7.20;99.90;;;;;;4841658;29;20045;-71
2023/01/09 08:17:46;;;;;;;6.13;4.47;;;7.20;99.90;;;;;;4841551;29;20053;-71
2023/01/09 08:20:14;;;;;;;4.45;3.42;;;7.20;99.90;;;;;;4841427;29;20132;-72
2023/01/09 08:22:41;;;;;;;6.38;3.70;;;7.20;99.90;;;;;;4842252;29;20050;-72
2023/01/09 08:25:07;;;;;;;4.68;3.60;;;7.20;99.90;;;;;;4859838;29;20079;-72
2023/01/09 08:27:33;;;;;;;6.10;3.63;;;7.20;99.90;;;;;;4844687;29;20057;-72
2023/01/09 08:29:59;;;;;;;4.30;3.85;;;7.20;99.90;;;;;;4859751;29;20056;-71
2023/01/09 08:32:25;;;;;;;6.28;3.05;;;7.20;99.90;;;;;;4859956;29;20041;-71
2023/01/09 08:34:51;;;;;;;3.42;2.80;;;7.20;99.90;;;;;;4829451;29;20148;-71
2023/01/09 08:37:16;;;;;;;4.15;3.55;;;7.30;99.90;;;;;;4859857;29;20046;-71
2023/01/09 08:39:42;;;;;;;5.65;3.42;;;7.30;99.90;;;;;;4859817;29;20085;-71
2023/01/09 08:47:36;;;;;;;6.10;3.42;;;7.40;99.90;;;;;;4846511;29;20092;-71
2023/01/09 08:50:03;;;;;;;6.10;3.15;;;7.40;99.90;;;;;;4858556;29;20090;-71
2023/01/09 08:52:29;;;;;;;4.05;2.90;;;7.40;99.90;;;;;;4843834;29;20116;-71
2023/01/09 08:54:55;;;;;;;;;;;7.50;99.90;;;;;;4859936;29;20056;-71
2023/01/09 08:57:21;;;;;;;7.38;3.50;;;7.50;99.90;;;;;;4859307;29;19931;-71
2023/01/09 08:59:46;;;;;;;4.68;3.40;;;7.50;99.90;;;;;;4844450;29;20538;-77
2023/01/09 09:02:12;;;;;;;4.22;3.22;;;7.50;99.90;;;;;;4860740;29;20498;-78
2023/01/09 09:04:38;;;;;;;5.13;3.35;;;7.60;99.90;;;;;;4845002;29;20490;-77
2023/01/09 09:07:03;;;;;;;4.60;3.08;;;7.60;99.90;;;;;;4859596;29;20417;-77
2023/01/09 09:09:29;;;;;;;6.63;3.80;;;7.60;99.90;;;;;;4859331;29;20049;-77
2023/01/09 09:11:55;;;;;;;5.57;3.55;;;7.60;99.90;;;;;;4860201;29;20042;-77
2023/01/09 09:17:05;;;;;;;6.63;3.58;;;7.70;99.90;;;;;;4859616;29;20125;-76
2023/01/09 09:19:30;;;;;;;8.18;3.58;;;7.80;99.90;;;;;;4844788;29;20053;-78
2023/01/09 09:21:56;;;;;;;3.67;2.72;;;7.80;99.90;;;;;;4859145;29;20413;-77
2023/01/09 09:24:22;;;;;;;7.30;3.05;;;7.80;99.90;;;;;;4859413;29;20060;-78
2023/01/09 09:26:50;;;;;;;5.78;2.83;;;7.80;99.90;;;;;;4845004;29;20045;-77
2023/01/09 09:29:16;;;;;;;3.17;2.55;;;7.80;99.90;;;;;;4860146;29;20065;-78
2023/01/09 09:31:41;;;;;;;5.68;2.78;;;7.90;99.90;;;;;;4860726;29;20048;-77
2023/01/09 09:34:07;;;;;;;7.15;2.92;;;7.90;99.90;;;;;;4860540;29;20553;-78
2023/01/09 09:36:33;;;;;;;5.35;2.70;;;7.90;99.90;;;;;;4860548;29;20045;-78
2023/01/09 09:39:01;;;;;;;5.07;2.70;;;7.90;99.90;;;;;;4860436;29;20155;-78
2023/01/09 09:45:20;;;;;;;5.97;2.92;;;7.90;99.90;;;;;;4853772;29;20053;-76
2023/01/09 09:48:24;;;;;;;5.70;2.83;;;7.90;99.90;;;;;;4856011;29;20045;-75
2023/01/09 09:51:28;;;;;;;4.13;2.50;;;7.90;99.90;;;;;;4859177;29;20049;-76
2023/01/09 09:54:09;;;;;;;5.78;2.35;;;7.90;99.90;;;;;;4842513;29;20048;-76
2023/01/09 09:56:42;;;;;;;4.07;1.92;;;7.90;99.90;;;;;;4857461;29;20064;-75
2023/01/09 09:59:17;;;;;;;4.68;2.17;;;8.00;99.90;;;;;;4858251;29;20122;-76
2023/01/09 10:01:59;;;;;;;3.90;2.28;;;7.90;99.90;;;;;;4838519;29;20045;-76
2023/01/09 10:04:29;;;;;;;6.97;2.47;;;8.00;99.90;;;;;;4854272;29;20091;-76
2023/01/09 10:07:08;;;;;;;4.55;2.03;;;8.00;99.90;;;;;;4857949;29;20062;-76
2023/01/09 10:09:49;;;;;;;4.18;2.10;;;8.00;99.90;;;;;;4857181;29;20508;-76
2023/01/09 10:12:30;;;;;;;5.28;2.28;;;8.00;99.90;;;;;;4859782;29;20045;-76
2023/01/09 10:14:58;;;;;;;5.25;2.40;;;8.10;99.90;;;;;;4855066;29;20467;-76
2023/01/09 10:17:32;;;;;;;3.47;1.95;;;8.10;99.90;;;;;;4856576;29;20053;-76
2023/01/09 10:20:22;;;;;;;2.88;1.88;;;8.20;99.90;;;;;;4857743;29;20049;-75
2023/01/09 10:23:02;;;;;;;3.72;2.00;;;8.20;99.90;;;;;;4852360;29;20048;-76
2023/01/09 10:25:51;;;;;;;5.18;2.10;;;8.20;99.90;;;;;;4851413;29;20100;-77
2023/01/09 10:28:33;;;;;;;7.05;2.42;;;8.20;99.90;;;;;;4856149;29;20089;-76
2023/01/09 10:31:08;;;;;;;4.32;1.75;;;8.20;99.90;;;;;;4840736;29;20053;-75
2023/01/09 10:33:55;;;;;;;3.30;1.80;;;8.20;99.90;;;;;;4840426;29;20487;-76
2023/01/09 10:36:58;;;;;;;4.85;2.20;;;8.20;99.90;;;;;;4855990;29;20054;-75
2023/01/09 10:39:31;;;;;;;3.92;1.92;;;8.20;99.90;;;;;;4841092;29;20519;-76
2023/01/09 10:42:43;;;;;;;3.15;1.63;;;8.20;99.90;;;;;;4825480;29;20053;-76
2023/01/09 10:45:28;;;;;;;4.20;2.10;;;8.30;99.90;;;;;;4839204;29;20065;-76
2023/01/09 10:48:02;;;;;;;3.28;1.83;;;8.30;99.90;;;;;;4824816;29;20129;-76
2023/01/09 10:50:32;;;;;;;2.33;1.70;;;8.40;99.90;;;;;;4840163;29;20058;-76
2023/01/09 10:52:59;;;;;;;5.07;1.80;;;8.40;99.90;;;;;;4855711;29;20048;-76
2023/01/09 10:55:46;;;;;;;3.45;1.75;;;8.40;99.90;;;;;;4824993;29;20034;-76
2023/01/09 10:58:20;;;;;;;4.93;2.00;;;8.50;99.90;;;;;;4840134;29;20391;-75
2023/01/09 11:00:47;;;;;;;5.45;2.10;;;8.50;99.90;;;;;;4825354;29;20058;-75
2023/01/09 11:03:25;;;;;;;3.22;1.80;;;8.50;99.90;;;;;;4840510;29;20054;-76
2023/01/09 11:05:57;;;;;;;3.20;1.85;;;8.40;99.90;;;;;;4825373;29;20106;-76
2023/01/09 11:08:36;;;;;;;5.07;2.10;;;8.40;99.90;;;;;;4856026;29;20054;-76
2023/01/09 11:11:03;;;;;;;4.13;2.10;;;8.40;99.90;;;;;;4839944;29;20095;-76
2023/01/09 11:13:32;;;;;;;3.83;1.90;;;8.40;99.90;;;;;;4840599;29;20073;-76
2023/01/09 11:16:10;;;;;;;3.75;2.00;;;8.30;99.90;;;;;;4839697;29;20053;-78
2023/01/09 11:18:56;;;;;;;2.42;1.60;;;8.30;99.90;;;;;;4840671;29;20050;-77
2023/01/09 11:21:36;;;;;;;6.18;1.60;;;8.30;99.90;;;;;;4840085;29;20050;-76
2023/01/09 11:24:17;;;;;;;7.18;2.33;;;8.30;99.90;;;;;;4851872;29;20108;-76
2023/01/09 11:26:59;;;;;;;3.38;2.03;;;8.30;99.90;;;;;;4858657;29;20511;-76
2023/01/09 11:29:25;;;;;;;5.32;2.30;;;8.30;99.90;;;;;;4844459;29;20085;-75
2023/01/09 11:31:58;;;;;;;3.05;1.90;;;8.20;99.90;;;;;;4859898;29;20096;-76
2023/01/09 11:34:29;;;;;;;3.63;1.80;;;8.30;99.90;;;;;;4858512;29;20105;-77
2023/01/09 11:37:05;;;;;;;4.70;1.80;;;8.30;99.90;;;;;;4858358;29;20089;-76
2023/01/09 11:39:33;;;;;;;4.22;2.28;;;8.20;99.90;;;;;;4859487;29;20057;-76
2023/01/09 11:42:03;;;;;;;4.32;1.80;;;8.30;99.90;;;;;;4858540;29;20058;-77
2023/01/09 11:44:30;;;;;;;2.53;1.52;;;8.30;99.90;;;;;;4855943;29;20041;-77
2023/01/09 11:46:56;;;;;;;4.47;2.08;;;8.20;99.90;;;;;;4841554;29;20054;-75
2023/01/09 11:49:28;;;;;;;4.30;2.45;;;8.20;99.90;;;;;;4857105;29;20458;-76
2023/01/09 11:52:18;;;;;;;3.97;2.00;;;8.20;99.90;;;;;;4854990;29;20339;-76
2023/01/09 11:55:04;;;;;;;3.67;1.70;;;8.20;99.90;;;;;;4855392;29;20078;-76
2023/01/09 11:57:31;;;;;;;3.88;1.55;;;8.20;99.90;;;;;;4858258;29;20037;-76
2023/01/09 12:00:01;;;;;;;2.72;1.90;;;8.20;99.90;;;;;;4839379;29;20122;-77
2023/01/09 12:02:47;;;;;;;2.53;1.50;;;8.20;99.90;;;;;;4856971;29;20551;-76
2023/01/09 12:05:37;;;;;;;2.28;1.40;;;8.20;99.90;;;;;;4835119;29;20426;-77
2023/01/09 12:08:31;;;;;;;1.90;1.30;;;8.20;99.90;;;;;;4854023;29;20056;-76
2023/01/09 12:11:11;;;;;;;4.70;2.60;;;8.20;99.90;;;;;;4852118;29;20128;-76
2023/01/09 12:14:00;;;;;;;3.70;2.00;;;8.20;99.90;;;;;;4853743;29;20033;-76
2023/01/09 12:16:25;;;;;;;3.85;2.67;;;8.20;99.90;;;;;;4845624;29;20050;-76
2023/01/09 12:18:58;;;;;;;7.10;3.20;;;8.30;99.90;;;;;;4855483;29;20180;-76
2023/01/09 12:21:45;;;;;;;7.05;3.03;;;8.30;99.90;;;;;;4854038;29;20056;-76
2023/01/09 12:24:37;;;;;;;5.25;2.85;;;8.30;99.90;;;;;;4852770;29;20120;-75
2023/01/09 12:27:25;;;;;;;6.68;3.25;;;8.30;99.90;;;;;;4847686;29;20052;-76
2023/01/09 12:30:19;;;;;;;5.15;3.03;;;8.30;99.90;;;;;;4858435;29;20049;-76
2023/01/09 12:33:00;;;;;;;3.80;2.47;;;8.30;99.90;;;;;;4862075;29;20120;-76
2023/01/09 12:35:39;;;;;;;4.97;3.00;;;8.30;99.90;;;;;;4859458;29;20098;-76
2023/01/09 12:38:28;;;;;;;5.95;3.10;;;8.30;99.90;;;;;;4859951;29;20109;-75
2023/01/09 12:41:03;;;;;;;5.57;2.97;;;8.30;99.90;;;;;;4846677;29;20168;-76
2023/01/09 12:43:32;;;;;;;6.47;3.38;;;8.30;99.90;;;;;;4860142;29;20216;-75
2023/01/09 12:46:18;;;;;;;4.80;3.08;;;8.30;99.90;;;;;;4861910;29;20197;-76
2023/01/09 12:49:11;;;;;;;5.68;3.10;;;8.30;99.90;;;;;;4860560;29;20092;-75
2023/01/09 12:51:54;;;;;;;5.13;3.30;;;8.30;99.90;;;;;;4861755;29;20049;-76
2023/01/09 12:54:33;;;;;;;4.05;2.92;;;8.30;99.90;;;;;;4861122;29;20049;-76
2023/01/09 12:57:21;;;;;;;3.88;2.78;;;8.30;99.90;;;;;;4861148;29;20186;-75
2023/01/09 12:59:52;;;;;;;6.45;2.85;;;8.30;99.90;;;;;;4860778;29;20049;-75
2023/01/09 13:02:26;;;;;;;4.53;3.05;;;8.30;99.90;;;;;;4860546;29;20104;-75
2023/01/09 13:05:14;;;;;;;5.82;2.83;;;8.30;99.90;;;;;;4860804;29;20164;-76
2023/01/09 13:08:07;;;;;;;5.45;3.17;;;8.30;99.90;;;;;;4861435;29;20108;-76
2023/01/09 13:10:39;;;;;;;4.53;3.55;;;8.40;99.90;;;;;;4858020;29;20053;-75
2023/01/09 13:13:21;;;;;;;5.55;3.33;;;8.40;99.90;;;;;;4846198;29;20076;-75
2023/01/09 13:16:03;;;;;;;5.45;3.53;;;8.40;99.90;;;;;;4861409;29;20053;-75
2023/01/09 13:18:39;;;;;;;5.90;3.40;;;8.40;99.90;;;;;;4845514;29;20062;-76
2023/01/09 13:21:06;;;;;;;5.22;2.88;;;8.40;99.90;;;;;;4879520;29;20053;-75
2023/01/09 13:23:57;;;;;;;4.97;3.80;;;8.40;99.90;;;;;;4879633;29;20064;-75
2023/01/09 13:26:38;;;;;;;4.93;3.83;;;8.40;99.90;;;;;;4879609;29;20132;-76
2023/01/09 13:29:19;;;;;;;5.75;3.70;;;8.40;99.90;;;;;;4854332;29;20110;-76
2023/01/09 13:32:00;;;;;;;7.28;4.72;;;8.40;99.90;;;;;;4847627;29;20365;-75
2023/01/09 13:34:29;;;;;;;5.97;4.10;;;8.40;99.90;;;;;;4854956;29;20045;-75